Create Custom Reports and Graphics: Custom Report

Top Stn/Summit - 11,053ft

Current Conditions

5/27/24 10:45 AM (-07:00)
Updated Every 15 Minutes
Temp 43.0 °F   0.7
WindChill 38.2 °F   1.2
RH 53 %   21
Dew Pt 26.8 °F   12.9
Wet Bulb 36.6 °F   3.8
Wind Dir NW | 320 °
Wind Spd 7.9 mph   0.7
Wind Gust 11.8 mph   2.9
Daily Max Wind 25.4 mph   5.4
Time of Max Wind 0103
Max Wind Dir ENE | 78 °
Daily Min Temp 37.6 °F   5.8
Time of Min Temp 0445
Daily Max Temp 44.2 °F   1.4
Time of Max Temp 0836
Yest MinT 31.8 °F
Yest MaxT 44.3 °F
Yest MaxGst 37.3 mph

Last 24 Hours

Top Stn/Summit - 11,053ft

15 Minute Data | America/Los_Angeles
as of 5/27/24 10:59 AM PDT
Date & Time Temp (°F) WindChill (°F) RH (%) Dew Pt (°F) Wet Bulb (°F) Wind Spd (mph) Wind Dir (°) Wind Gust (mph) Wind Gst Dir (°) Daily Min Temp (°F) Daily Max Temp (°F) Daily Max Wind (mph) Max Wind Dir (°)
5/27/24 - 1045 43.0 38.2 53 26.8 36.6 7.9 NW | 320 11.8 N | 350 37.6 44.2 25.4 ENE | 78
5/27/24 - 1030 42.6 37.5 53 26.5 36.3 8.6 WNW | 293 11.0 N | 350 37.6 44.2 25.4 ENE | 78
5/27/24 - 1015 42.4 37.9 52 26.1 36.0 7.2 NW | 311 9.5 N | 350 37.6 44.2 25.4 ENE | 78
5/27/24 - 1000 42.4 39.0 51 25.4 35.8 5.4 NNW | 341 8.3 NNW | 338 37.6 44.2 25.4 ENE | 78
5/27/24 - 0945 43.1 41.2 50 25.5 36.2 3.6 NNW | 330 5.4 NW | 323 37.6 44.2 25.4 ENE | 78
5/27/24 - 0930 43.5 - 48 25.3 36.4 2.9 NW | 318 4.6 NW | 310 37.6 44.2 25.4 ENE | 78
5/27/24 - 0915 42.3 - 49 24.5 35.5 0.4 NW | 307 0.4 NW | 323 37.6 44.2 25.4 ENE | 78
5/27/24 - 0900 41.9 - 49 24.0 35.2 0.4 NW | 313 0.4 NW | 325 37.6 44.2 25.4 ENE | 78
5/27/24 - 0845 43.3 - 46 24.2 36.0 0.4 NNW | 330 0.4 N | 349 37.6 44.2 25.4 ENE | 78
5/27/24 - 0830 42.7 - 47 23.7 35.5 0.4 W | 265 0.4 NNW | 333 37.6 43.5 25.4 ENE | 78
5/27/24 - 0815 42.7 - 47 23.7 35.5 0.4 NNW | 331 0.4 N | 350 37.6 43.4 25.4 ENE | 78
5/27/24 - 0800 42.0 - 48 23.7 35.1 0.4 NNW | 329 0.4 NW | 312 37.6 42.9 25.4 ENE | 78
5/27/24 - 0745 41.0 - 49 23.2 34.4 0.4 NNW | 336 0.4 NNW | 334 37.6 42.9 25.4 ENE | 78
5/27/24 - 0730 42.2 - 47 23.6 35.2 0.4 NW | 317 0.6 WNW | 302 37.6 42.9 25.4 ENE | 78
5/27/24 - 0715 39.7 - 50 22.4 33.4 0.4 WNW | 294 0.5 NNW | 330 37.6 40.9 25.4 ENE | 78
5/27/24 - 0700 39.1 - 50 22.2 33.0 0.4 SE | 124 1.0 E | 88 37.6 39.5 25.4 ENE | 78
5/27/24 - 0645 38.6 - 52 22.3 32.7 0.8 ESE | 113 1.9 ENE | 75 37.6 39.5 25.4 ENE | 78
5/27/24 - 0630 38.4 - 52 22.3 32.6 1.6 SSE | 155 3.3 N | 350 37.6 39.5 25.4 ENE | 78
5/27/24 - 0615 38.2 - 52 22.3 32.5 1.3 SE | 139 3.5 E | 83 37.6 39.5 25.4 ENE | 78
5/27/24 - 0600 37.9 - 53 22.2 32.3 1.5 SSW | 197 3.9 N | 349 37.6 39.5 25.4 ENE | 78
5/27/24 - 0545 37.8 - 53 22.2 32.2 1.7 E | 90 3.9 E | 86 37.6 39.5 25.4 ENE | 78
5/27/24 - 0530 38.1 - 53 22.3 32.4 1.2 WSW | 254 3.6 E | 80 37.6 39.5 25.4 ENE | 78
5/27/24 - 0515 37.8 34.8 53 22.1 32.2 4.0 E | 98 8.8 ENE | 73 37.6 39.5 25.4 ENE | 78
5/27/24 - 0500 37.7 - 52 21.9 32.1 2.4 SSE | 168 7.5 ESE | 121 37.6 39.5 25.4 ENE | 78
5/27/24 - 0445 37.9 32.5 52 21.7 32.1 7.1 E | 90 10.4 ENE | 77 37.6 39.5 25.4 ENE | 78
5/27/24 - 0430 38.1 30.7 52 21.9 32.3 11.2 ESE | 108 13.4 ENE | 73 37.6 39.5 25.4 ENE | 78
5/27/24 - 0415 37.7 30.1 53 22.0 32.1 11.7 W | 268 15.1 N | 350 37.6 39.5 25.4 ENE | 78
5/27/24 - 0400 37.7 29.2 53 22.2 32.2 14.1 NNW | 336 17.5 N | 349 37.6 39.5 25.4 ENE | 78
5/27/24 - 0345 37.9 28.8 53 22.2 32.3 15.9 NNW | 340 19.3 N | 349 37.7 39.5 25.4 ENE | 78
5/27/24 - 0330 38.0 28.7 53 22.2 32.3 16.7 NNW | 344 19.0 N | 350 37.8 39.5 25.4 ENE | 78
5/27/24 - 0315 38.1 28.8 53 22.4 32.4 16.9 NNW | 334 20.0 N | 350 37.9 39.5 25.4 ENE | 78
5/27/24 - 0300 38.3 28.5 52 22.4 32.6 19.0 NW | 316 21.4 N | 350 38.2 39.5 25.4 ENE | 78
5/27/24 - 0245 38.3 28.4 52 22.3 32.6 19.4 NW | 313 21.0 N | 350 38.2 39.5 25.4 ENE | 78
5/27/24 - 0230 38.4 28.4 53 22.7 32.7 19.6 SSW | 202 21.0 ENE | 71 38.2 39.5 25.4 ENE | 78
5/27/24 - 0215 38.5 28.4 55 23.8 33.1 20.8 ESE | 121 24.4 ENE | 75 38.2 39.5 25.4 ENE | 78
5/27/24 - 0200 38.7 28.2 53 23.2 33.1 22.6 E | 95 25.1 E | 79 38.4 39.5 25.4 ENE | 78
5/27/24 - 0145 38.8 28.3 52 22.8 33.0 22.6 E | 101 24.3 ENE | 74 38.4 39.5 25.4 ENE | 78
5/27/24 - 0130 39.1 28.8 51 22.5 33.1 22.2 ESE | 108 24.4 ENE | 78 38.9 39.5 25.4 ENE | 78
5/27/24 - 0115 39.3 28.8 50 22.4 33.2 23.1 E | 86 25.4 ENE | 78 39.1 39.5 25.4 ENE | 78
5/27/24 - 0100 39.2 28.8 51 22.5 33.2 22.9 E | 88 24.9 ENE | 78 31.8 44.3 37.3 S | 186
5/27/24 - 0045 39.3 29.3 51 22.6 33.3 21.5 E | 97 25.2 ENE | 76 31.8 44.3 37.3 S | 186
5/27/24 - 0030 39.6 29.3 50 22.3 33.3 23.0 E | 82 25.4 ENE | 76 31.8 44.3 37.3 S | 186
5/27/24 - 0015 39.6 29.0 49 22.2 33.3 24.1 E | 87 27.6 ENE | 77 31.8 44.3 37.3 S | 186
5/27/24 - 0000 39.7 29.0 50 22.5 33.4 24.6 E | 82 27.3 ENE | 78 31.8 44.3 37.3 S | 186
5/26/24 - 2345 39.8 29.0 51 23.0 33.6 25.3 E | 82 27.9 E | 81 31.8 44.3 37.3 S | 186
5/26/24 - 2330 40.0 29.8 51 23.3 33.8 22.9 E | 82 27.3 E | 84 31.8 44.3 37.3 S | 186
5/26/24 - 2315 40.2 31.0 52 23.9 34.2 19.0 E | 82 22.7 E | 84 31.8 44.3 37.3 S | 186
5/26/24 - 2300 40.7 32.4 51 24.2 34.5 16.1 E | 86 21.4 E | 83 31.8 44.3 37.3 S | 186
5/26/24 - 2245 40.9 33.5 50 23.9 34.6 13.5 E | 89 17.9 E | 90 31.8 44.3 37.3 S | 186
5/26/24 - 2230 41.2 35.1 47 22.3 34.3 10.1 E | 97 12.7 E | 90 31.8 44.3 37.3 S | 186
5/26/24 - 2215 41.4 35.7 42 19.8 33.7 9.2 ESE | 112 12.3 ESE | 104 31.8 44.3 37.3 S | 186
5/26/24 - 2200 42.0 37.4 40 19.3 33.9 7.1 ESE | 109 10.9 E | 91 31.8 44.3 37.3 S | 186
5/26/24 - 2145 41.6 39.9 36 16.3 33.1 3.2 SE | 128 7.6 E | 86 31.8 44.3 37.3 S | 186
5/26/24 - 2130 40.8 36.3 31 12.7 31.8 6.8 S | 183 9.8 SSW | 194 31.8 44.3 37.3 S | 186
5/26/24 - 2115 40.2 33.8 35 14.9 31.8 10.1 SSW | 197 11.0 SSW | 200 31.8 44.3 37.3 S | 186
5/26/24 - 2100 40.2 33.2 42 18.9 32.8 11.8 SSW | 201 13.7 SSW | 201 31.8 44.3 37.3 S | 186
5/26/24 - 2045 41.4 34.1 56 26.9 35.7 13.3 SSW | 200 15.6 SSW | 200 31.8 44.3 37.3 S | 186
5/26/24 - 2030 40.9 32.9 53 25.2 34.9 15.2 SSW | 201 17.7 SSW | 199 31.8 44.3 37.3 S | 186
5/26/24 - 2015 40.4 31.7 54 24.9 34.5 16.9 SSW | 199 18.0 SSW | 200 31.8 44.3 37.3 S | 186
5/26/24 - 2000 40.6 31.8 54 25.4 34.9 18.3 SSW | 197 20.3 SSW | 198 31.8 44.3 37.3 S | 186
5/26/24 - 1945 41.1 32.2 54 25.6 35.2 18.8 SSW | 196 21.6 SSW | 193 31.8 44.3 37.3 S | 186
5/26/24 - 1930 40.2 30.4 56 25.6 34.7 21.6 SSW | 194 24.0 SSW | 194 31.8 44.3 37.3 S | 186
5/26/24 - 1915 40.4 30.4 55 25.7 34.8 22.5 SSW | 195 26.6 SSW | 192 31.8 44.3 37.3 S | 186
5/26/24 - 1900 40.2 29.7 56 25.8 34.7 24.6 S | 189 28.8 S | 184 31.8 44.3 37.3 S | 186
5/26/24 - 1845 41.5 31.5 56 26.8 35.8 24.3 S | 190 30.6 S | 187 31.8 44.3 37.3 S | 186
5/26/24 - 1830 41.8 31.8 56 27.4 36.1 25.0 S | 190 32.7 S | 187 31.8 44.3 37.3 S | 186
5/26/24 - 1815 41.4 31.3 55 26.6 35.7 24.9 S | 187 32.0 S | 189 31.8 44.3 37.3 S | 186
5/26/24 - 1800 41.9 31.8 51 25.2 35.5 26.0 S | 183 32.2 S | 186 31.8 44.3 37.3 S | 186
5/26/24 - 1745 42.2 32.1 49 24.2 35.4 25.9 S | 184 35.6 S | 184 31.8 44.3 37.3 S | 186
5/26/24 - 1730 42.0 32.0 48 23.8 35.2 25.5 S | 180 34.6 S | 179 31.8 44.3 37.3 S | 186
5/26/24 - 1715 42.1 31.9 48 23.6 35.1 26.6 S | 179 37.3 S | 189 31.8 44.3 37.3 S | 186
5/26/24 - 1700 42.1 31.7 49 24.1 35.3 28.0 S | 185 36.5 SSW | 192 31.8 44.3 37.3 S | 186
5/26/24 - 1645 42.4 32.3 47 23.5 35.3 26.2 S | 182 37.3 S | 186 31.8 44.3 37.3 S | 186
5/26/24 - 1630 42.7 32.7 47 23.7 35.5 26.9 S | 182 36.7 SSW | 194 31.8 44.3 36.7 SSW | 194
5/26/24 - 1615 43.4 33.9 45 23.2 35.8 24.9 S | 183 33.8 S | 191 31.8 44.3 36.2 S | 186
5/26/24 - 1600 43.1 33.2 46 23.8 35.8 26.8 S | 186 36.2 S | 186 31.8 44.3 36.2 S | 186
5/26/24 - 1545 42.6 32.7 47 24.0 35.6 26.1 S | 185 36.2 S | 181 31.8 44.3 36.2 S | 181
5/26/24 - 1530 43.1 34.0 47 24.0 35.9 23.0 S | 186 35.3 S | 187 31.8 44.3 35.3 S | 187
5/26/24 - 1515 43.1 33.6 45 23.5 35.7 24.6 S | 187 33.9 S | 189 31.8 44.3 33.9 S | 189
5/26/24 - 1500 42.9 33.4 46 23.6 35.6 24.0 SSW | 194 30.8 SSW | 195 31.8 44.3 33.2 SSW | 198
5/26/24 - 1445 42.9 33.6 46 23.5 35.6 23.5 S | 184 32.3 SSW | 198 31.8 44.3 33.2 SSW | 198
5/26/24 - 1430 43.6 34.7 42 22.3 35.6 22.6 SSW | 196 33.2 SSW | 198 31.8 44.3 33.2 SSW | 198
5/26/24 - 1415 43.4 35.5 40 20.8 35.1 17.5 S | 188 26.2 SSW | 199 31.8 44.3 26.2 SSW | 199
5/26/24 - 1400 43.4 35.6 39 20.2 35.0 17.4 S | 185 25.8 S | 174 31.8 44.3 25.8 S | 174
5/26/24 - 1345 43.6 36.2 38 19.5 34.9 15.9 S | 190 22.6 S | 189 31.8 44.3 23.8 S | 185
5/26/24 - 1330 44.0 37.2 36 18.8 34.9 14.2 S | 179 23.1 SSE | 163 31.8 44.3 23.8 S | 185
5/26/24 - 1315 43.5 36.2 36 18.6 34.6 15.4 S | 187 23.8 S | 185 31.8 43.8 23.8 S | 185
5/26/24 - 1300 43.3 36.6 37 18.8 34.5 13.1 S | 183 23.4 SSW | 198 31.8 43.7 23.4 SSW | 198
5/26/24 - 1245 43.3 36.3 38 19.3 34.6 14.1 SSW | 195 18.0 SSW | 208 31.8 43.7 20.4 S | 185
5/26/24 - 1230 43.1 36.5 38 18.9 34.5 12.7 S | 188 20.4 S | 185 31.8 43.4 20.4 S | 185
5/26/24 - 1215 43.1 37.1 38 19.0 34.5 11.1 SSW | 193 16.9 S | 184 31.8 43.4 20.0 S | 189
5/26/24 - 1200 42.8 37.1 38 18.9 34.3 10.0 S | 187 17.0 S | 185 31.8 43.1 20.0 S | 189
5/26/24 - 1145 42.6 36.7 36 17.3 33.8 10.3 S | 188 17.3 SSW | 203 31.8 42.9 20.0 S | 189
5/26/24 - 1130 42.4 37.4 34 16.3 33.4 8.1 SSW | 192 14.2 S | 184 31.8 42.8 20.0 S | 189
5/26/24 - 1115 42.4 36.8 33 15.0 33.2 9.4 SSW | 192 14.3 S | 189 31.8 42.8 20.0 S | 189
5/26/24 - 1100 42.2 37.1 32 14.6 33.0 8.3 SSW | 198 12.9 SSW | 196 31.8 42.8 20.0 S | 189
5/26/24 - 1045 42.2 37.0 31 13.9 32.8 8.6 SSW | 200 14.8 SSW | 194 31.8 42.8 20.0 S | 189
Max 44.0 41.2 56 27.4 36.6 28.0 - 37.3 - 39.1 44.3 37.3 -
Avg 41.0 33.0 48 22.4 34.2 14.2 - 18.5 - - - - -
Min 37.7 28.2 31 12.7 31.8 0.4 - 0.4 - 31.8 39.5 20.0 -
Calm: 0.0%